createdAt,value
2023-03-12T00:00:36.064Z,48.86
2023-03-12T00:05:04.139Z,49.34
2023-03-12T00:09:09.399Z,49.69
2023-03-12T00:13:25.272Z,50.57
2023-03-12T00:17:11.640Z,50.43
2023-03-12T00:20:54.102Z,50.77
2023-03-12T00:24:23.410Z,50.91
2023-03-12T00:28:15.813Z,51.52
2023-03-12T00:32:42.244Z,52.05
2023-03-12T00:37:07.878Z,52.21
2023-03-12T00:41:39.279Z,52.58
2023-03-12T00:45:40.012Z,52.88
2023-03-12T00:49:38.671Z,53.63
2023-03-12T00:53:28.378Z,53.67
2023-03-12T00:57:13.319Z,53.36
2023-03-12T01:00:43.564Z,53.33
2023-03-12T01:04:12.470Z,53.28
2023-03-12T01:07:17.839Z,53.09
2023-03-12T01:10:58.644Z,53.52
2023-03-12T01:19:36.659Z,53.43
2023-03-12T01:24:07.732Z,54.45
2023-03-12T01:28:15.562Z,55.15
2023-03-12T01:32:57.228Z,54.22
2023-03-12T01:36:54.319Z,54.33
2023-03-12T01:40:08.016Z,53.53
2023-03-12T01:44:05.207Z,54.29
2023-03-12T01:48:31.856Z,54.91
2023-03-12T01:52:19.717Z,54.77
2023-03-12T01:55:27.886Z,54.68
2023-03-12T01:58:48.876Z,54.17
2023-03-12T02:02:09.310Z,54.50
2023-03-12T02:05:22.204Z,54.26
2023-03-12T02:08:52.024Z,53.90
2023-03-12T02:12:15.764Z,53.76
2023-03-12T02:15:36.392Z,53.46
2023-03-12T02:19:08.308Z,53.21
2023-03-12T02:22:56.786Z,53.80
2023-03-12T02:26:49.713Z,53.84
2023-03-12T02:36:26.068Z,53.67
2023-03-12T02:40:02.125Z,52.64
2023-03-12T02:43:34.216Z,53.33
2023-03-12T02:47:35.304Z,52.61
2023-03-12T02:51:30.651Z,52.57
2023-03-12T02:55:13.295Z,53.35
2023-03-12T02:58:50.720Z,53.63
2023-03-12T03:02:28.108Z,53.97
2023-03-12T03:06:09.935Z,54.75
2023-03-12T03:09:58.408Z,54.64
2023-03-12T03:13:39.302Z,54.89
2023-03-12T03:17:15.420Z,54.71
2023-03-12T03:20:36.851Z,54.08
2023-03-12T03:24:17.652Z,53.45
2023-03-12T03:27:55.373Z,54.34
2023-03-12T03:36:12.082Z,54.32
2023-03-12T03:44:44.427Z,55.17
2023-03-12T03:52:32.811Z,55.33
2023-03-12T03:57:07.328Z,55.51
2023-03-12T04:00:33.399Z,55.17
2023-03-12T04:04:06.800Z,54.80
2023-03-12T04:07:52.553Z,55.19
2023-03-12T04:12:09.841Z,54.93
2023-03-12T04:16:07.230Z,54.37
2023-03-12T04:19:49.186Z,55.65
2023-03-12T04:23:51.468Z,55.61
2023-03-12T04:27:54.166Z,55.68
2023-03-12T04:31:43.959Z,56.35
2023-03-12T04:35:38.213Z,56.74
2023-03-12T04:39:24.906Z,56.41
2023-03-12T04:48:14.859Z,55.18
2023-03-12T04:56:56.590Z,55.53
2023-03-12T05:00:52.457Z,55.46
2023-03-12T05:04:41.904Z,55.77
2023-03-12T05:13:25.868Z,56.05
2023-03-12T05:17:34.170Z,55.15
2023-03-12T05:21:34.425Z,54.85
2023-03-12T05:25:24.844Z,55.91
2023-03-12T05:29:12.023Z,55.70
2023-03-12T05:33:19.450Z,55.81
2023-03-12T05:37:19.724Z,54.97
2023-03-12T05:41:09.487Z,54.78
2023-03-12T05:45:40.820Z,55.79
2023-03-12T05:49:14.238Z,55.67
2023-03-12T05:52:19.540Z,56.36
2023-03-12T05:55:27.080Z,55.95
2023-03-12T05:58:54.590Z,55.37
2023-03-12T06:02:14.073Z,53.81
2023-03-12T06:06:19.534Z,52.81
2023-03-12T06:09:51.593Z,52.11
2023-03-12T06:13:10.144Z,50.18
2023-03-12T06:16:30.439Z,50.30
2023-03-12T06:19:44.369Z,49.48
2023-03-12T06:22:56.143Z,46.62
2023-03-12T06:26:06.404Z,46.02
2023-03-12T06:29:15.511Z,44.03
2023-03-12T06:32:24.669Z,42.75
2023-03-12T06:35:36.206Z,43.13
2023-03-12T06:38:49.431Z,43.77
2023-03-12T06:41:58.448Z,45.24
2023-03-12T06:45:10.575Z,43.95
2023-03-12T06:48:22.028Z,45.24
2023-03-12T06:51:35.992Z,44.02
2023-03-12T06:54:45.145Z,45.98
2023-03-12T06:58:13.777Z,45.22
2023-03-12T07:01:30.380Z,45.30
2023-03-12T07:04:51.266Z,44.15
2023-03-12T07:08:22.015Z,43.43
2023-03-12T07:11:54.413Z,39.97
2023-03-12T07:15:07.719Z,39.12
2023-03-12T07:18:26.331Z,36.92
2023-03-12T07:21:38.781Z,36.50
2023-03-12T07:25:09.528Z,36.28
2023-03-12T07:28:29.588Z,34.94
2023-03-12T07:31:36.293Z,34.75
2023-03-12T07:34:40.658Z,35.85
2023-03-12T07:37:44.479Z,34.70
2023-03-12T07:40:52.980Z,35.05
2023-03-12T07:44:40.883Z,34.15
2023-03-12T07:48:06.265Z,33.32
2023-03-12T07:51:18.285Z,33.64
2023-03-12T07:54:39.494Z,34.88
2023-03-12T07:58:04.509Z,34.49
2023-03-12T08:01:45.419Z,34.17
2023-03-12T08:05:38.549Z,34.78
2023-03-12T08:08:57.760Z,35.11
2023-03-12T08:12:16.817Z,36.96
2023-03-12T08:16:36.044Z,37.98
2023-03-12T08:21:06.122Z,38.28
2023-03-12T08:24:55.993Z,38.85
2023-03-12T08:28:37.372Z,39.43
2023-03-12T08:32:05.730Z,38.95
2023-03-12T08:35:32.274Z,39.99
2023-03-12T08:39:01.560Z,39.44
2023-03-12T08:42:07.918Z,40.99
2023-03-12T08:45:14.338Z,38.88
2023-03-12T08:48:18.865Z,38.80
2023-03-12T08:51:24.257Z,39.47
2023-03-12T08:54:29.591Z,40.19
2023-03-12T08:57:34.049Z,39.44
2023-03-12T09:00:37.801Z,38.87
2023-03-12T09:03:42.792Z,38.26
2023-03-12T09:06:47.909Z,39.21
2023-03-12T09:10:00.239Z,38.61
2023-03-12T09:13:05.778Z,37.67
2023-03-12T09:16:15.837Z,38.20
2023-03-12T09:19:19.465Z,39.16
2023-03-12T09:22:24.395Z,39.25
2023-03-12T09:25:29.483Z,39.32
2023-03-12T09:28:33.846Z,39.43
2023-03-12T09:31:42.780Z,39.05
2023-03-12T09:34:56.865Z,39.22
2023-03-12T09:38:04.868Z,39.70
2023-03-12T09:41:30.747Z,38.04
2023-03-12T09:44:40.905Z,36.47
2023-03-12T09:47:51.334Z,37.23
2023-03-12T09:50:55.423Z,38.28
2023-03-12T09:54:04.913Z,38.88
2023-03-12T09:57:15.921Z,38.46
2023-03-12T10:00:23.413Z,36.97
2023-03-12T10:03:48.852Z,37.64
2023-03-12T10:07:05.599Z,38.44
2023-03-12T10:10:38.559Z,38.27
2023-03-12T10:14:01.454Z,37.26
2023-03-12T10:17:21.685Z,38.38
2023-03-12T10:21:06.710Z,38.07
2023-03-12T10:24:25.571Z,39.71
2023-03-12T10:27:45.694Z,38.89
2023-03-12T10:31:01.415Z,38.77
2023-03-12T10:34:26.872Z,39.41
2023-03-12T10:37:38.814Z,40.12
2023-03-12T10:40:46.828Z,39.32
2023-03-12T10:43:51.716Z,38.59
2023-03-12T10:47:27.825Z,39.21
2023-03-12T10:50:46.123Z,38.19
2023-03-12T10:53:54.225Z,38.17
2023-03-12T10:56:58.388Z,38.34
2023-03-12T11:00:11.999Z,36.86
2023-03-12T11:03:22.795Z,37.61
2023-03-12T11:06:35.278Z,36.36
2023-03-12T11:09:39.929Z,38.07
2023-03-12T11:13:00.122Z,37.97
2023-03-12T11:16:31.813Z,37.52
2023-03-12T11:19:47.608Z,37.19
2023-03-12T11:23:09.935Z,38.18
2023-03-12T11:26:45.603Z,35.99
2023-03-12T11:30:14.046Z,38.35
2023-03-12T11:33:53.179Z,36.78
2023-03-12T11:37:29.050Z,37.91
2023-03-12T11:40:55.300Z,37.82
2023-03-12T11:44:17.557Z,37.07
2023-03-12T11:47:37.684Z,36.02
2023-03-12T11:50:54.216Z,36.48
2023-03-12T11:54:17.154Z,36.70
2023-03-12T11:57:32.719Z,37.52
2023-03-12T12:00:47.905Z,36.63
2023-03-12T12:04:11.319Z,35.48
2023-03-12T12:07:30.721Z,37.11
2023-03-12T12:10:48.837Z,37.38
2023-03-12T12:14:13.662Z,37.03
2023-03-12T12:17:35.345Z,37.62
2023-03-12T12:20:52.509Z,37.33
2023-03-12T12:24:08.698Z,37.90
2023-03-12T12:27:21.936Z,36.59
2023-03-12T12:30:36.281Z,36.38
2023-03-12T12:33:58.868Z,36.99
2023-03-12T12:37:29.062Z,38.00
2023-03-12T12:40:41.424Z,37.73
2023-03-12T12:43:55.546Z,37.74
2023-03-12T12:47:06.557Z,38.13
2023-03-12T12:50:21.827Z,37.61
2023-03-12T12:53:29.363Z,37.33
2023-03-12T12:57:00.113Z,38.33
2023-03-12T13:00:29.333Z,38.23
2023-03-12T13:03:42.114Z,36.73
2023-03-12T13:11:18.339Z,37.92
2023-03-12T13:14:40.478Z,38.11
2023-03-12T13:18:11.785Z,37.34
2023-03-12T13:21:25.760Z,38.15
2023-03-12T13:29:59.389Z,38.34
2023-03-12T13:33:22.166Z,38.70
2023-03-12T13:36:31.047Z,38.77
2023-03-12T13:39:38.021Z,39.10
2023-03-12T13:42:43.427Z,39.83
2023-03-12T13:46:09.947Z,38.84
2023-03-12T13:49:43.090Z,39.47
2023-03-12T13:53:22.811Z,38.48
2023-03-12T13:57:24.352Z,38.44
2023-03-12T14:05:03.550Z,39.00
2023-03-12T14:09:09.563Z,38.89
2023-03-12T14:12:30.914Z,39.31
2023-03-12T14:16:14.359Z,38.76
2023-03-12T14:19:21.533Z,38.70
2023-03-12T14:22:31.067Z,39.35
2023-03-12T14:25:39.312Z,38.40
2023-03-12T14:28:44.023Z,38.54
2023-03-12T14:31:49.841Z,38.14
2023-03-12T14:35:01.236Z,38.72
2023-03-12T14:38:20.263Z,38.47
2023-03-12T14:41:29.488Z,38.41
2023-03-12T14:44:36.785Z,39.05
2023-03-12T14:47:42.749Z,36.95
2023-03-12T14:50:50.892Z,37.56
2023-03-12T14:54:06.764Z,37.91
2023-03-12T14:57:16.091Z,38.53
2023-03-12T15:00:30.094Z,38.32
2023-03-12T15:03:42.170Z,38.04
2023-03-12T15:06:48.277Z,37.78
2023-03-12T15:09:54.854Z,38.08
2023-03-12T15:13:00.683Z,37.97
2023-03-12T15:16:04.840Z,37.84
2023-03-12T15:19:12.781Z,38.35
2023-03-12T15:22:20.791Z,37.95
2023-03-12T15:25:29.285Z,37.81
2023-03-12T15:28:33.078Z,38.20
2023-03-12T15:31:46.872Z,37.77
2023-03-12T15:34:53.444Z,37.60
2023-03-12T15:37:57.274Z,38.10
2023-03-12T15:41:08.886Z,38.71
2023-03-12T15:44:20.928Z,38.85
2023-03-12T15:47:27.760Z,39.43
2023-03-12T15:50:34.503Z,39.27
2023-03-12T15:53:39.091Z,39.10
2023-03-12T15:56:44.677Z,38.94
2023-03-12T16:00:08.225Z,38.97
2023-03-12T16:03:17.492Z,39.63
2023-03-12T16:06:25.499Z,39.86
2023-03-12T16:09:35.047Z,39.43
2023-03-12T16:12:40.420Z,39.14
2023-03-12T16:15:45.713Z,39.26
2023-03-12T16:18:50.927Z,39.25
2023-03-12T16:21:54.399Z,39.33
2023-03-12T16:24:58.085Z,39.08
2023-03-12T16:28:06.681Z,38.91
2023-03-12T16:31:14.796Z,38.84
2023-03-12T16:34:18.827Z,38.96
2023-03-12T16:37:25.702Z,39.48
2023-03-12T16:40:34.946Z,38.58
2023-03-12T16:43:41.863Z,39.48
2023-03-12T16:46:48.495Z,39.33
2023-03-12T16:49:54.258Z,39.20
2023-03-12T16:52:59.666Z,39.02
2023-03-12T16:56:03.996Z,39.26
2023-03-12T16:59:18.253Z,39.56
2023-03-12T17:02:23.642Z,39.35
2023-03-12T17:05:31.733Z,39.93
2023-03-12T17:08:39.980Z,40.88
2023-03-12T17:11:47.693Z,41.61
2023-03-12T17:14:53.364Z,41.81
2023-03-12T17:18:06.017Z,43.27
2023-03-12T17:25:23.566Z,45.02
2023-03-12T17:28:27.410Z,45.12
2023-03-12T17:31:32.931Z,45.81
2023-03-12T17:34:36.694Z,45.56
2023-03-12T17:37:40.792Z,46.61
2023-03-12T17:40:46.311Z,47.15
2023-03-12T17:43:53.237Z,48.64
2023-03-12T17:46:59.727Z,48.68
2023-03-12T17:50:04.951Z,49.03
2023-03-12T17:53:08.528Z,48.72
2023-03-12T17:56:17.926Z,47.99
2023-03-12T17:59:28.588Z,48.51
2023-03-12T18:02:33.857Z,48.01
2023-03-12T18:05:41.597Z,48.49
2023-03-12T18:08:45.681Z,49.50
2023-03-12T18:11:49.382Z,48.69
2023-03-12T18:14:53.610Z,48.40
2023-03-12T18:17:58.881Z,47.80
2023-03-12T18:21:07.873Z,47.40
2023-03-12T18:24:14.567Z,47.67
2023-03-12T18:27:21.030Z,47.35
2023-03-12T18:35:37.549Z,47.73
2023-03-12T18:38:42.813Z,47.43
2023-03-12T18:41:48.210Z,47.33
2023-03-12T18:44:53.593Z,48.29
2023-03-12T18:48:03.728Z,48.98
2023-03-12T18:51:17.610Z,49.26
2023-03-12T18:54:30.995Z,49.09
2023-03-12T18:58:27.471Z,49.25
2023-03-12T19:02:16.151Z,49.54
2023-03-12T19:05:23.343Z,49.25
2023-03-12T19:08:31.702Z,49.21
2023-03-12T19:11:37.125Z,48.44
2023-03-12T19:14:48.589Z,48.74
2023-03-12T19:17:57.081Z,49.85
2023-03-12T19:21:11.646Z,49.51
2023-03-12T19:24:20.670Z,49.14
2023-03-12T19:27:28.563Z,48.75
2023-03-12T19:30:38.547Z,48.45
2023-03-12T19:33:47.948Z,49.38
2023-03-12T19:36:51.746Z,48.91
2023-03-12T19:39:58.133Z,49.54
2023-03-12T19:43:04.726Z,49.76
2023-03-12T19:46:08.758Z,50.52
2023-03-12T19:49:16.852Z,49.65
2023-03-12T19:52:29.576Z,50.39
2023-03-12T19:55:40.454Z,50.19
2023-03-12T19:58:48.911Z,49.60
2023-03-12T20:01:54.239Z,49.55
2023-03-12T20:04:59.113Z,50.56
2023-03-12T20:08:31.606Z,50.83
2023-03-12T20:11:40.938Z,51.27
2023-03-12T20:15:13.589Z,51.29
2023-03-12T20:18:42.173Z,51.28
2023-03-12T20:22:43.814Z,50.98
2023-03-12T20:35:08.419Z,49.53
2023-03-12T20:38:12.202Z,50.11
2023-03-12T20:41:18.198Z,50.56
2023-03-12T20:44:22.658Z,50.30
2023-03-12T20:47:27.675Z,50.48
2023-03-12T20:50:57.821Z,50.57
2023-03-12T20:54:27.788Z,51.08
2023-03-12T20:57:35.707Z,51.14
2023-03-12T21:00:39.891Z,51.87
2023-03-12T21:03:44.258Z,51.26
2023-03-12T21:06:53.025Z,50.67
2023-03-12T21:09:57.825Z,51.48
2023-03-12T21:13:01.898Z,50.75
2023-03-12T21:16:08.609Z,50.52
2023-03-12T21:19:22.633Z,51.00
2023-03-12T21:22:34.612Z,50.69
2023-03-12T21:25:41.710Z,50.55
2023-03-12T21:28:50.339Z,50.64
2023-03-12T21:32:13.299Z,50.40
2023-03-12T21:36:18.847Z,50.25
2023-03-12T21:40:03.569Z,50.25
2023-03-12T21:43:16.870Z,50.84
2023-03-12T21:46:28.307Z,50.75
2023-03-12T21:49:34.242Z,51.52
2023-03-12T21:52:43.319Z,51.45
2023-03-12T21:55:57.377Z,51.55
2023-03-12T21:59:04.366Z,50.99
2023-03-12T22:02:19.994Z,50.82
2023-03-12T22:05:30.479Z,50.55
2023-03-12T22:08:52.702Z,50.79
2023-03-12T22:12:05.566Z,51.04
2023-03-12T22:15:24.621Z,50.84
2023-03-12T22:18:44.078Z,51.65
2023-03-12T22:21:49.491Z,51.67
2023-03-12T22:24:54.429Z,51.58
2023-03-12T22:28:01.273Z,52.46
2023-03-12T22:31:11.015Z,52.44
2023-03-12T22:34:27.149Z,51.65
2023-03-12T22:37:32.196Z,51.24
2023-03-12T22:40:40.072Z,51.09
2023-03-12T22:44:01.166Z,51.12
2023-03-12T22:47:10.165Z,51.09
2023-03-12T22:50:15.288Z,51.56
2023-03-12T22:53:20.652Z,52.11
2023-03-12T22:56:25.369Z,52.05
2023-03-12T22:59:33.129Z,51.56
2023-03-12T23:02:38.860Z,51.65
2023-03-12T23:05:46.993Z,51.69
2023-03-12T23:08:54.285Z,51.46
2023-03-12T23:11:59.661Z,52.60
2023-03-12T23:15:09.294Z,52.61
2023-03-12T23:18:25.248Z,52.42
2023-03-12T23:21:29.805Z,51.92
2023-03-12T23:24:37.195Z,51.81
2023-03-12T23:27:43.756Z,51.98
2023-03-12T23:30:57.268Z,50.71
2023-03-12T23:34:02.463Z,51.39
2023-03-12T23:37:16.984Z,51.17
2023-03-12T23:40:22.018Z,51.06
2023-03-12T23:43:30.260Z,50.39
2023-03-12T23:46:40.020Z,51.40
2023-03-12T23:49:55.129Z,51.56
2023-03-12T23:53:01.546Z,51.01
2023-03-12T23:56:11.496Z,50.70
2023-03-12T23:59:19.353Z,51.50
